Fergus Falls, MN

11:21 AM CST on December 05, 2019 (GMT -0600)
Fergus Falls Municipal-Mickelson

Weather History for KFFM - October, 2019

Change the Weather History Date:

Sunday, October 13, 2019

  Actual Average Record
Temperature  
Mean Temperature 36 °F -  
Max Temperature 39 °F 56 °F 80 °F (1956)
Min Temperature 32 °F 36 °F 16 °F (1986)
Degree Days  
Heating Degree Days 30    
Moisture  
Dew Point 32 °F    
Average Humidity 91    
Maximum Humidity 100    
Minimum Humidity 70    
Precipitation  
Precipitation 0.02 in - - ()
Sea Level Pressure  
Sea Level Pressure 29.79 in    
Wind  
Wind Speed 10 mph ()    
Max Wind Speed 15 mph    
Max Gust Speed 21 mph    
Visibility 6.7 miles    
Events Rain , Snow    
Averages and records for this station are not official NWS values.
T = Trace of Precipitation, MM = Missing Value Source: Averaged Metar Reports

Daily Weather History Graph

Daily Weather History Graph

Search for Another Location

Airport or City:

Astronomy

Oct. 13, 2019 Rise Set
Actual Time 7:38 AM CDT 6:42 PM CDT
Civil Twilight 7:08 AM CDT 7:12 PM CDT
Nautical Twilight 6:33 AM CDT 7:47 PM CDT
Astronomical Twilight 5:58 AM CDT 8:21 PM CDT
Moon 7:08 PM CDT (10/13) 7:09 AM CDT (10/13)
Length of Visible Light 12h 03m
Length of Day
11h 03m
Full, 100% of the Moon is Illuminated
Oct 13
Full
Oct 13
Full
Oct 21
Last Quarter
Oct 27
New
Nov 4
First Quarter

Hourly Weather History & Observations

Time (CDT) Temp. Windchill Dew Point Humidity Pressure Visibility Wind Dir Wind Speed Gust Speed Precip Events Conditions
12:18 AM 32.0 °F 22.5 °F 32.0 °F 100% 29.63 in 2.0 mi NNW 12.7 mph - 0.01 in Snow Light Snow
12:37 AM 32.0 °F 24.8 °F 32.0 °F 100% 29.64 in 3.0 mi NNW 8.1 mph - 0.01 in Rain Light Rain
12:55 AM 32.0 °F 24.8 °F 32.0 °F 100% 29.64 in 2.0 mi WNW 8.1 mph - 0.01 in   Overcast
1:15 AM 32.0 °F 23.0 °F 32.0 °F 100% 29.64 in 3.0 mi WNW 11.5 mph - N/A   Overcast
1:16 AM 32.0 °F 23.0 °F 32.0 °F 100% 29.64 in 3.0 mi WNW 11.5 mph - N/A   Overcast
1:35 AM 32.0 °F 23.0 °F 32.0 °F 100% 29.64 in 4.0 mi WNW 11.5 mph - N/A   Overcast
1:36 AM 32.0 °F 23.0 °F 32.0 °F 100% 29.64 in 3.0 mi WNW 11.5 mph - N/A   Overcast
1:58 AM 32.0 °F 23.0 °F 32.0 °F 100% 29.65 in 1.8 mi WNW 11.5 mph 17.3 mph N/A   Overcast
2:17 AM 32.0 °F 23.6 °F 32.0 °F 100% 29.65 in 1.8 mi WNW 10.4 mph - N/A   Overcast
2:36 AM 32.0 °F 22.5 °F 32.0 °F 100% 29.66 in 4.0 mi WNW 12.7 mph 17.3 mph N/A   Overcast
2:55 AM 32.0 °F 23.6 °F 32.0 °F 100% 29.66 in 2.5 mi WNW 10.4 mph - N/A Rain Light Rain
2:56 AM 32.0 °F 23.6 °F 32.0 °F 100% 29.66 in 2.5 mi WNW 10.4 mph - N/A Rain Light Rain
3:15 AM 32.0 °F 22.5 °F 32.0 °F 100% 29.66 in 2.0 mi WNW 12.7 mph 17.3 mph N/A Snow Light Snow
3:37 AM 32.0 °F 23.6 °F 32.0 °F 100% 29.67 in 2.0 mi WNW 10.4 mph - N/A Snow Light Snow
3:55 AM 32.0 °F 23.6 °F 32.0 °F 100% 29.67 in 2.5 mi WNW 10.4 mph - N/A Snow Light Snow
3:56 AM 32.0 °F 23.6 °F 32.0 °F 100% 29.67 in 2.5 mi WNW 10.4 mph - N/A Snow Light Snow
4:16 AM 32.0 °F 23.0 °F 32.0 °F 100% 29.67 in 4.0 mi WNW 11.5 mph - N/A   Overcast
4:35 AM 32.0 °F 22.1 °F 32.0 °F 100% 29.67 in 3.0 mi WNW 13.8 mph - N/A Snow Light Snow
4:40 AM 32.0 °F 23.0 °F 32.0 °F 100% 29.68 in 2.5 mi WNW 11.5 mph - N/A Snow Light Snow
4:58 AM 32.0 °F 22.5 °F 32.0 °F 100% 29.68 in 2.5 mi WNW 12.7 mph - N/A Snow Light Snow
5:15 AM 32.0 °F 22.1 °F 32.0 °F 100% 29.68 in 2.5 mi WNW 13.8 mph 19.6 mph N/A Snow Light Snow
5:35 AM 32.0 °F 22.5 °F 32.0 °F 100% 29.68 in 2.5 mi WNW 12.7 mph - N/A Snow Light Snow
5:55 AM 32.0 °F 23.0 °F 32.0 °F 100% 29.69 in 2.5 mi WNW 11.5 mph 17.3 mph N/A Snow Light Snow
5:56 AM 32.0 °F 22.5 °F 32.0 °F 100% 29.69 in 2.0 mi WNW 12.7 mph 17.3 mph N/A Snow Light Snow
6:19 AM 32.0 °F 22.5 °F 32.0 °F 100% 29.69 in 2.0 mi WNW 12.7 mph 17.3 mph 0.01 in Snow Light Snow
6:36 AM 32.0 °F 21.6 °F 32.0 °F 100% 29.69 in 4.0 mi WNW 15.0 mph 19.6 mph 0.01 in Snow Light Snow
6:56 AM 32.0 °F 21.6 °F 32.0 °F 100% 29.70 in 7.0 mi WNW 15.0 mph 20.7 mph N/A   Overcast
7:15 AM 32.0 °F 23.0 °F 32.0 °F 100% 29.70 in 2.0 mi WNW 11.5 mph - N/A Snow Light Snow
7:16 AM 32.0 °F 22.5 °F 32.0 °F 100% 29.70 in 2.0 mi WNW 12.7 mph - N/A Snow Light Snow
7:35 AM 32.0 °F 22.1 °F 32.0 °F 100% 29.70 in 3.0 mi WNW 13.8 mph - N/A Snow Light Snow
7:39 AM 32.0 °F 22.5 °F 32.0 °F 100% 29.71 in 4.0 mi WNW 12.7 mph - N/A Snow Light Snow
7:58 AM 32.0 °F 22.5 °F 32.0 °F 100% 29.71 in 2.0 mi WNW 12.7 mph - N/A Snow Light Snow
8:15 AM 32.0 °F 22.5 °F 32.0 °F 100% 29.72 in 2.5 mi WNW 12.7 mph - N/A Snow Light Snow
8:35 AM 32.0 °F 23.0 °F 32.0 °F 100% 29.72 in 2.0 mi WNW 11.5 mph 17.3 mph N/A Snow Light Snow
8:36 AM 32.0 °F 23.6 °F 32.0 °F 100% 29.72 in 1.8 mi WNW 10.4 mph 17.3 mph N/A Snow Light Snow
8:55 AM 32.0 °F 23.0 °F 32.0 °F 100% 29.73 in 1.8 mi WNW 11.5 mph 16.1 mph N/A Snow Light Snow
9:18 AM 32.0 °F 22.5 °F 32.0 °F 100% 29.74 in 4.0 mi WNW 12.7 mph - N/A Snow Light Snow
9:37 AM 32.0 °F 23.0 °F 32.0 °F 100% 29.75 in 1.8 mi NW 11.5 mph - N/A Snow Light Snow
9:56 AM 32.0 °F 23.0 °F 32.0 °F 100% 29.75 in 1.8 mi NW 11.5 mph - N/A Snow Light Snow
10:15 AM 33.8 °F 24.8 °F 32.0 °F 93% 29.76 in 2.0 mi NW 12.7 mph - N/A Snow Light Snow
10:35 AM 33.8 °F 24.8 °F 32.0 °F 93% 29.77 in 3.0 mi NW 12.7 mph - N/A   Overcast
10:39 AM 33.8 °F 24.8 °F 32.0 °F 93% 29.77 in 4.0 mi NW 12.7 mph - N/A   Overcast
10:57 AM 33.8 °F 24.3 °F 32.0 °F 93% 29.78 in 10.0 mi NW 13.8 mph 17.3 mph N/A   Overcast
11:16 AM 33.8 °F 23.9 °F 33.8 °F 100% 29.78 in 10.0 mi NNW 15.0 mph - N/A   Overcast
11:35 AM 35.6 °F 28.0 °F 32.0 °F 87% 29.78 in 10.0 mi NNW 10.4 mph 17.3 mph N/A   Overcast
11:55 AM 35.6 °F 27.1 °F 32.0 °F 87% 29.79 in 10.0 mi NW 12.7 mph 18.4 mph N/A   Overcast
11:56 AM 35.6 °F 27.5 °F 32.0 °F 87% 29.79 in 10.0 mi NW 11.5 mph 18.4 mph N/A   Overcast
12:18 PM 35.6 °F 27.5 °F 32.0 °F 87% 29.79 in 10.0 mi NW 11.5 mph 18.4 mph N/A   Overcast
12:36 PM 35.6 °F 26.6 °F 32.0 °F 87% 29.80 in 10.0 mi NNW 13.8 mph - N/A   Overcast
12:55 PM 35.6 °F 26.2 °F 32.0 °F 87% 29.80 in 10.0 mi NW 15.0 mph 18.4 mph N/A   Overcast
12:56 PM 35.6 °F 26.6 °F 32.0 °F 87% 29.80 in 10.0 mi NW 13.8 mph 18.4 mph N/A   Overcast
1:15 PM 35.6 °F 26.6 °F 32.0 °F 87% 29.81 in 10.0 mi NW 13.8 mph - N/A   Overcast
1:16 PM 35.6 °F 26.2 °F 32.0 °F 87% 29.81 in 10.0 mi WNW 15.0 mph - N/A   Overcast
1:35 PM 35.6 °F 27.1 °F 32.0 °F 87% 29.82 in 10.0 mi NW 12.7 mph 18.4 mph N/A   Overcast
1:39 PM 35.6 °F 26.2 °F 32.0 °F 87% 29.82 in 10.0 mi NW 15.0 mph 18.4 mph N/A   Overcast
1:57 PM 35.6 °F 26.6 °F 32.0 °F 87% 29.82 in 10.0 mi NW 13.8 mph - N/A   Overcast
2:35 PM 37.4 °F 29.3 °F 32.0 °F 81% 29.83 in 10.0 mi NW 12.7 mph 18.4 mph N/A   Overcast
2:55 PM 37.4 °F 30.8 °F 32.0 °F 81% 29.83 in 10.0 mi NNW 9.2 mph - N/A   Overcast
2:56 PM 37.4 °F 30.8 °F 32.0 °F 81% 29.83 in 10.0 mi NW 9.2 mph - N/A   Overcast
3:19 PM 37.4 °F 29.8 °F 30.2 °F 75% 29.83 in 10.0 mi NNW 11.5 mph - N/A   Overcast
3:36 PM 37.4 °F 30.3 °F 30.2 °F 75% 29.84 in 10.0 mi NW 10.4 mph - N/A   Mostly Cloudy
3:56 PM 39.2 °F 31.6 °F 30.2 °F 70% 29.84 in 10.0 mi WNW 12.7 mph 18.4 mph N/A   Scattered Clouds
4:15 PM 39.2 °F 31.2 °F 30.2 °F 70% 29.85 in 10.0 mi NW 13.8 mph - N/A   Mostly Cloudy
4:35 PM 37.4 °F 32.1 °F 32.0 °F 81% 29.85 in 10.0 mi North 6.9 mph - N/A   Mostly Cloudy
4:39 PM 37.4 °F 31.4 °F 32.0 °F 81% 29.85 in 10.0 mi North 8.1 mph - N/A   Mostly Cloudy
4:57 PM 37.4 °F 32.1 °F 32.0 °F 81% 29.86 in 10.0 mi NNW 6.9 mph - N/A   Scattered Clouds
5:15 PM 39.2 °F 35.0 °F 30.2 °F 70% 29.86 in 10.0 mi NNW 5.8 mph - N/A   Scattered Clouds
5:35 PM 37.4 °F 33.8 °F 30.2 °F 75% 29.86 in 10.0 mi North 4.6 mph - N/A   Mostly Cloudy
5:36 PM 37.4 °F 32.8 °F 30.2 °F 75% 29.86 in 10.0 mi North 5.8 mph - N/A   Overcast
5:55 PM 37.4 °F 33.8 °F 30.2 °F 75% 29.87 in 10.0 mi NNW 4.6 mph - N/A   Overcast
6:18 PM 37.4 °F - 32.0 °F 81% 29.88 in 10.0 mi Calm Calm - N/A   Overcast
6:35 PM 37.4 °F 34.9 °F 32.0 °F 81% 29.88 in 10.0 mi WNW 3.5 mph - N/A   Overcast
6:55 PM 37.4 °F 32.8 °F 32.0 °F 81% 29.89 in 10.0 mi NW 5.8 mph - N/A   Overcast
7:15 PM 37.4 °F 33.8 °F 32.0 °F 81% 29.90 in 10.0 mi WNW 4.6 mph - N/A   Overcast
7:16 PM 37.4 °F 32.8 °F 32.0 °F 81% 29.90 in 10.0 mi NW 5.8 mph - N/A   Overcast
7:39 PM 35.6 °F 31.7 °F 32.0 °F 87% 29.90 in 10.0 mi WNW 4.6 mph - N/A   Overcast
7:56 PM 35.6 °F 28.6 °F 32.0 °F 87% 29.91 in 10.0 mi WNW 9.2 mph - N/A   Overcast
8:16 PM 35.6 °F 27.5 °F 30.2 °F 81% 29.92 in 10.0 mi WNW 11.5 mph - N/A   Overcast
8:35 PM 35.6 °F 27.1 °F 30.2 °F 81% 29.93 in 10.0 mi WNW 12.7 mph - N/A   Overcast
8:36 PM 35.6 °F 27.5 °F 30.2 °F 81% 29.92 in 10.0 mi WNW 11.5 mph - N/A   Overcast
8:55 PM 35.6 °F 27.1 °F 30.2 °F 81% 29.93 in 10.0 mi WNW 12.7 mph - N/A   Overcast
8:59 PM 35.6 °F 28.0 °F 30.2 °F 81% 29.93 in 10.0 mi WNW 10.4 mph - N/A   Overcast
9:16 PM 35.6 °F 28.6 °F 30.2 °F 81% 29.93 in 10.0 mi WNW 9.2 mph - N/A   Overcast
9:36 PM 35.6 °F 29.2 °F 30.2 °F 81% 29.93 in 10.0 mi WNW 8.1 mph - N/A   Overcast
9:55 PM 35.6 °F 29.9 °F 30.2 °F 81% 29.94 in 10.0 mi WNW 6.9 mph - N/A   Overcast
10:15 PM 33.8 °F 28.6 °F 32.0 °F 93% 29.94 in 10.0 mi WNW 5.8 mph - N/A   Mostly Cloudy
10:19 PM 33.8 °F 28.6 °F 32.0 °F 93% 29.94 in 10.0 mi WNW 5.8 mph - N/A   Mostly Cloudy
10:37 PM 33.8 °F 28.6 °F 32.0 °F 93% 29.94 in 10.0 mi WNW 5.8 mph - N/A   Scattered Clouds
10:56 PM 33.8 °F 30.8 °F 32.0 °F 93% 29.94 in 10.0 mi WNW 3.5 mph - N/A   Mostly Cloudy
11:15 PM 33.8 °F 30.8 °F 32.0 °F 93% 29.93 in 10.0 mi WNW 3.5 mph - N/A   Overcast
11:16 PM 33.8 °F 30.8 °F 32.0 °F 93% 29.93 in 10.0 mi WNW 3.5 mph - N/A   Overcast
11:35 PM 33.8 °F 29.6 °F 32.0 °F 93% 29.94 in 10.0 mi WNW 4.6 mph - N/A   Overcast
11:36 PM 33.8 °F 29.6 °F 32.0 °F 93% 29.94 in 10.0 mi WNW 4.6 mph - N/A   Overcast
11:59 PM 33.8 °F 30.8 °F 32.0 °F 93% 29.94 in 10.0 mi West 3.5 mph - N/A   Overcast